Time;durP1;ratioP1;P1;durP2;ratioP2;P2;SDS_P1;SDS_P2;PMS_P1;PMS_P2;Temp;Humidity;BMP_temperature;BMP_pressure;BME280_temperature;BME280_humidity;BME280_pressure;Samples;Min_cycle;Max_cycle;Signal;HPM_P1;HPM_P2
2022/01/22 00:00:21;;;;;;;;;;;;;;;5.33;96.51;103408.28;5088280;28;19920;-86
2022/01/22 00:02:46;;;;;;;;;;;;;;;5.31;96.29;103398.69;5084124;28;19916;-85
2022/01/22 00:05:13;;;;;;;;;;;;;;;5.37;96.94;103401.38;5086865;28;20415;-84
2022/01/22 00:07:39;;;;;;;;;;;;;;;5.31;97.02;103398.69;5092000;28;20709;-84
2022/01/22 00:10:07;;;;;;;;;;;;;;;5.32;96.39;103387.41;5086399;28;19920;-84
2022/01/22 00:15:29;;;;;;;;;;;;;;;5.36;96.55;103390.06;5088528;28;19916;-88
2022/01/22 00:17:55;;;;;;;;;;;;;;;5.38;96.41;103391.00;5073951;28;19923;-88
2022/01/22 00:20:22;;;;;;;;;;;;;;;5.32;96.83;103382.19;5087271;28;19960;-82
2022/01/22 00:22:47;;;;;;;;;;;;;;;5.37;96.74;103383.13;5092069;28;19927;-79
2022/01/22 00:25:14;;;;;;;;;;;;;;;5.34;96.40;103378.75;5091569;28;20277;-80
2022/01/22 00:27:40;;;;;;;;;;;;;;;5.30;97.16;103387.34;5095313;28;20297;-81
2022/01/22 00:30:06;;;;;;;;;;;;;;;5.30;97.37;103382.13;5092178;28;19920;-81
2022/01/22 00:32:32;;;;;;;;;;;;;;;5.32;97.26;103396.09;5091749;28;20338;-80
2022/01/22 00:34:57;;;;;;;;;;;;;;;5.36;97.75;103394.41;5091050;28;19959;-83
2022/01/22 00:37:22;;;;;;;;;;;;;;;5.35;97.10;103393.53;5091520;28;20011;-81
2022/01/22 00:39:47;;;;;;;;;;;;;;;5.37;97.25;103394.44;5092840;28;19916;-81
2022/01/22 00:42:15;;;;;;;;;;;;;;;5.40;97.64;103386.66;5090966;28;19927;-78
2022/01/22 00:44:41;;;;;;;;;;;;;;;5.38;97.28;103383.16;5094502;28;19965;-80
2022/01/22 00:47:07;;;;;;;;;;;;;;;5.39;97.33;103389.25;5091875;28;19931;-79
2022/01/22 00:49:33;;;;;;;;;;;;;;;5.35;97.49;103390.03;5092669;28;19916;-82
2022/01/22 00:51:58;;;;;;;;;;;;;;;5.36;97.52;103394.41;5091027;28;20463;-78
2022/01/22 00:54:23;;;;;;;;;;;;;;;5.38;98.52;103392.69;5090423;28;19916;-82
2022/01/22 00:56:49;;;;;;;;;;;;;;;5.40;98.14;103394.47;5092370;28;19930;-81
2022/01/22 00:59:14;;;;;;;;;;;;;;;5.36;97.94;103405.72;5092241;28;19916;-81
2022/01/22 01:01:40;;;;;;;;;;;;;;;5.33;98.28;103391.75;5091149;28;19916;-82
2022/01/22 01:04:08;;;;;;;;;;;;;;;5.34;98.22;103385.69;5091542;28;19989;-80
2022/01/22 01:06:33;;;;;;;;;;;;;;;5.33;98.05;103395.22;5091795;28;20003;-81
2022/01/22 01:09:00;;;;;;;;;;;;;;;5.36;97.80;103392.69;5092046;28;20121;-82
2022/01/22 01:11:28;;;;;;;;;;;;;;;5.34;97.74;103394.38;5088635;28;19956;-76
2022/01/22 01:13:58;;;;;;;;;;;;;;;5.40;97.73;103386.66;5085568;28;19916;-77
2022/01/22 01:35:09;;;;;;;;;;;;;;;5.45;96.67;103383.25;5087011;28;19975;-75
2022/01/22 01:37:35;;;;;;;;;;;;;;;5.41;96.87;103387.53;5086885;28;19973;-77
2022/01/22 01:40:04;;;;;;;;;;;;;;;5.38;97.41;103388.38;5081586;28;20011;-76
2022/01/22 01:45:10;;;;;;;;;;;;;;;5.39;97.24;103399.66;5082257;28;19962;-79
2022/01/22 01:47:37;;;;;;;;;;;;;;;5.39;97.39;103400.56;5088791;28;20011;-78
2022/01/22 01:50:03;;;;;;;;;;;;;;;5.38;97.23;103395.31;5087619;28;19928;-75
2022/01/22 01:57:50;;;;;;;;;;;;;;;5.39;98.19;103400.56;5088283;28;19920;-76
2022/01/22 02:00:15;;;;;;;;;;;;;;;5.42;98.25;103400.59;5088115;28;20288;-74
2022/01/22 02:02:41;;;;;;;;;;;;;;;5.46;97.69;103392.84;5078162;28;19966;-75
2022/01/22 02:05:09;;;;;;;;;;;;;;;5.42;97.46;103395.38;5077385;28;20397;-75
2022/01/22 02:07:38;;;;;;;;;;;;;;;5.48;97.71;103396.34;5081887;28;20307;-78
2022/01/22 02:10:04;;;;;;;;;;;;;;;5.48;97.19;103401.56;5086890;28;19916;-77
2022/01/22 02:25:38;;;;;;;;;;;;;;;5.47;98.26;103395.44;5082885;28;19931;-77
2022/01/22 02:28:04;;;;;;;;;;;;;;;5.46;98.02;103395.44;5088065;28;19924;-76
2022/01/22 02:30:32;;;;;;;;;;;;;;;5.48;98.50;103397.22;5089098;28;19927;-78
2022/01/22 02:35:48;;;;;;;;;;;;;;;5.48;98.13;103396.34;5082017;28;19924;-75
2022/01/22 02:38:19;;;;;;;;;;;;;;;5.49;98.50;103405.94;5074568;28;20011;-80
2022/01/22 02:40:47;;;;;;;;;;;;;;;5.49;98.58;103405.94;5085611;28;19916;-79
2022/01/22 02:43:13;;;;;;;;;;;;;;;5.49;98.96;103398.09;5088441;28;19916;-79
2022/01/22 02:45:39;;;;;;;;;;;;;;;5.48;98.72;103405.03;5088279;28;20411;-81
2022/01/22 02:48:05;;;;;;;;;;;;;;;5.47;99.16;103403.28;5087443;28;20312;-79
2022/01/22 02:50:30;;;;;;;;;;;;;;;5.50;99.26;103399.88;5088810;28;19923;-80
2022/01/22 02:52:55;;;;;;;;;;;;;;;5.50;98.81;103405.06;5086633;28;19920;-79
2022/01/22 02:55:21;;;;;;;;;;;;;;;5.50;99.44;103405.06;5088362;28;19920;-80
2022/01/22 02:57:46;;;;;;;;;;;;;;;5.50;99.82;103405.94;5088495;28;20142;-79
2022/01/22 03:00:13;;;;;;;;;;;;;;;5.50;99.57;103399.88;5088319;28;19923;-79
2022/01/22 03:02:39;;;;;;;;;;;;;;;5.51;100.00;103391.19;5087530;28;19961;-80
2022/01/22 03:05:05;;;;;;;;;;;;;;;5.49;99.96;103396.34;5088051;28;19955;-80
2022/01/22 03:07:30;;;;;;;;;;;;;;;5.46;100.00;103401.50;5090322;28;19923;-80
2022/01/22 03:10:01;;;;;;;;;;;;;;;5.48;100.00;103404.16;5087634;28;19920;-75
2022/01/22 03:27:14;;;;;;;;;;;;;;;5.46;100.00;103405.88;5085445;28;19924;-76
2022/01/22 03:28:41;;;;;;;;;;;;;;;5.46;100.00;103405.88;5083841;28;19923;-75
2022/01/22 03:31:07;;;;;;;;;;;;;;;5.45;100.00;103409.31;5085802;28;19916;-76
2022/01/22 03:33:32;;;;;;;;;;;;;;;5.42;100.00;103399.72;5089458;28;20404;-76
2022/01/22 03:35:59;;;;;;;;;;;;;;;5.42;100.00;103411.03;5088099;28;19975;-79
2022/01/22 03:38:24;;;;;;;;;;;;;;;5.46;100.00;103405.88;5087238;28;20018;-78
2022/01/22 03:40:50;;;;;;;;;;;;;;;5.44;100.00;103410.16;5086774;28;20540;-76
2022/01/22 03:43:16;;;;;;;;;;;;;;;5.46;100.00;103413.69;5087800;28;19970;-77
2022/01/22 03:45:41;;;;;;;;;;;;;;;5.46;100.00;103413.69;5089703;28;19916;-77
2022/01/22 03:48:07;;;;;;;;;;;;;;;5.48;100.00;103412.00;5087268;28;20010;-80
2022/01/22 03:50:32;;;;;;;;;;;;;;;5.47;100.00;103410.22;5079594;28;19920;-79
2022/01/22 03:52:57;;;;;;;;;;;;;;;5.55;100.00;103416.44;5087536;28;19928;-80
2022/01/22 03:55:37;;;;;;;;;;;;;;;5.58;99.73;103411.28;5087569;28;19945;-76
2022/01/22 03:58:03;;;;;;;;;;;;;;;5.56;97.57;103402.56;5088398;28;19916;-75
2022/01/22 04:00:28;;;;;;;;;;;;;;;5.63;97.41;103411.34;5093312;28;19927;-77
2022/01/22 04:05:42;;;;;;;;;;;;;;;5.61;96.19;103413.94;5098186;27;19927;-76
2022/01/22 04:10:49;;;;;;;;;;;;;;;5.65;96.49;103407.91;5092147;28;19916;-76
2022/01/22 04:13:17;;;;;;;;;;;;;;;5.64;95.86;103406.16;5091062;28;19923;-78
2022/01/22 04:15:42;;;;;;;;;;;;;;;5.65;95.85;103407.91;5092962;28;19920;-79
2022/01/22 04:28:35;;;;;;;;;;;;;;;5.67;96.80;103410.56;5088603;28;19916;-75
2022/01/22 04:31:00;;;;;;;;;;;;;;;5.64;97.37;103408.75;5091328;28;19958;-75
2022/01/22 04:33:26;;;;;;;;;;;;;;;5.66;97.56;103409.66;5090114;28;19924;-74
2022/01/22 04:35:51;;;;;;;;;;;;;;;5.65;97.54;103407.03;5091764;28;19924;-73
2022/01/22 04:38:17;;;;;;;;;;;;;;;5.64;97.63;103406.16;5089525;28;19963;-76
2022/01/22 04:40:42;;;;;;;;;;;;;;;5.65;97.29;103412.25;5090666;28;19920;-76
2022/01/22 04:43:08;;;;;;;;;;;;;;;5.67;96.87;103408.81;5096438;28;19926;-76
2022/01/22 04:56:16;;;;;;;;;;;;;;;5.63;96.90;103396.56;5088093;28;19920;-75
2022/01/22 04:58:42;;;;;;;;;;;;;;;5.64;96.71;103390.50;5090806;28;19942;-75
2022/01/22 05:01:07;;;;;;;;;;;;;;;5.63;96.93;103396.56;5089993;28;20384;-75
2022/01/22 05:03:32;;;;;;;;;;;;;;;5.67;96.66;103394.91;5090353;28;20011;-75
2022/01/22 05:05:58;;;;;;;;;;;;;;;5.65;96.81;103399.22;5091156;28;19965;-76
2022/01/22 05:08:23;;;;;;;;;;;;;;;5.67;96.54;103401.00;5088334;28;20254;-76
2022/01/22 05:10:48;;;;;;;;;;;;;;;5.70;96.44;103400.16;5090556;28;20332;-74
2022/01/22 05:13:14;;;;;;;;;;;;;;;5.62;95.78;103404.38;5089016;28;19920;-75
2022/01/22 05:15:39;;;;;;;;;;;;;;;5.65;96.44;103407.03;5089993;27;20010;-75
2022/01/22 05:18:07;;;;;;;;;;;;;;;5.62;96.20;103401.78;5087232;28;19938;-75
2022/01/22 05:20:41;;;;;;;;;;;;;;;5.67;95.85;103398.38;5086664;28;19955;-75
2022/01/22 05:23:12;;;;;;;;;;;;;;;5.64;95.80;103400.06;5087767;28;19923;-76
2022/01/22 05:25:43;;;;;;;;;;;;;;;5.61;96.02;103403.50;5090548;28;20385;-75
2022/01/22 05:30:58;;;;;;;;;;;;;;;5.63;95.60;103400.91;5088995;28;20574;-75
2022/01/22 05:38:44;;;;;;;;;;;;;;;5.61;96.54;103400.00;5072788;28;19928;-82
2022/01/22 05:41:11;;;;;;;;;;;;;;;5.61;96.06;103394.78;5072937;28;19938;-77
2022/01/22 05:43:36;;;;;;;;;;;;;;;5.60;95.98;103396.53;5087472;28;19920;-77
2022/01/22 05:46:01;;;;;;;;;;;;;;;5.60;95.50;103400.88;5087811;28;19923;-75
2022/01/22 05:48:27;;;;;;;;;;;;;;;5.62;95.74;103393.94;5086876;28;20379;-76
2022/01/22 06:01:21;;;;;;;;;;;;;;;5.67;95.76;103408.81;5087557;28;19946;-77
2022/01/22 06:03:46;;;;;;;;;;;;;;;5.62;96.59;103410.50;5089922;28;19920;-78
2022/01/22 06:06:12;;;;;;;;;;;;;;;5.65;97.08;103410.50;5087854;28;20001;-83
2022/01/22 06:11:24;;;;;;;;;;;;;;;5.63;96.93;103417.44;5089802;28;19924;-77
2022/01/22 06:13:49;;;;;;;;;;;;;;;5.63;97.30;103427.00;5087078;28;19920;-82
2022/01/22 06:16:16;;;;;;;;;;;;;;;5.63;97.14;103432.22;5087020;28;19974;-76
2022/01/22 06:18:41;;;;;;;;;;;;;;;5.72;97.36;103428.03;5089086;28;19923;-76
2022/01/22 06:21:08;;;;;;;;;;;;;;;5.68;97.15;103434.03;5084863;28;19943;-75
2022/01/22 06:23:34;;;;;;;;;;;;;;;5.68;97.99;103435.75;5090593;28;20014;-75
2022/01/22 06:26:00;;;;;;;;;;;;;;;5.64;97.87;103432.22;5089821;28;20460;-78
2022/01/22 06:28:26;;;;;;;;;;;;;;;5.63;97.81;103443.50;5089265;28;20068;-83
2022/01/22 06:30:51;;;;;;;;;;;;;;;5.64;97.84;103444.41;5088209;28;19916;-83
2022/01/22 06:33:17;;;;;;;;;;;;;;;5.61;97.51;103445.25;5086068;28;20360;-80
2022/01/22 06:35:42;;;;;;;;;;;;;;;5.60;98.01;103445.19;5075053;28;19924;-77
2022/01/22 06:38:09;;;;;;;;;;;;;;;5.59;97.94;103449.56;5085963;28;19927;-78
2022/01/22 06:42:59;;;;;;;;;;;;;;;5.59;98.03;103454.75;5079868;28;20003;-86
2022/01/22 06:45:25;;;;;;;;;;;;;;;5.61;97.78;103449.56;5073634;28;19999;-76
2022/01/22 06:47:50;;;;;;;;;;;;;;;5.64;97.25;103447.88;5087921;28;19920;-75
2022/01/22 06:50:15;;;;;;;;;;;;;;;5.70;96.85;103453.22;5089153;28;19916;-85
2022/01/22 06:52:41;;;;;;;;;;;;;;;5.70;96.29;103450.59;5092564;28;20360;-85
2022/01/22 06:55:07;;;;;;;;;;;;;;;5.65;97.26;103447.03;5090282;28;19965;-84
2022/01/22 06:57:32;;;;;;;;;;;;;;;5.68;97.34;103451.41;5089394;28;19926;-77
2022/01/22 06:59:58;;;;;;;;;;;;;;;5.64;97.49;103450.47;5087395;28;19956;-75
2022/01/22 07:02:24;;;;;;;;;;;;;;;5.67;97.11;103447.94;5086357;28;19916;-75
2022/01/22 07:04:49;;;;;;;;;;;;;;;5.70;96.72;103448.00;5089984;28;19924;-76
2022/01/22 07:07:14;;;;;;;;;;;;;;;5.66;96.39;103453.13;5087793;28;19987;-77
2022/01/22 07:09:40;;;;;;;;;;;;;;;5.67;95.84;103457.50;5087989;28;19916;-77
2022/01/22 07:12:06;;;;;;;;;;;;;;;5.67;96.14;103453.16;5088009;28;20019;-77
2022/01/22 07:14:31;;;;;;;;;;;;;;;5.66;95.93;103455.75;5086063;28;20003;-76
2022/01/22 07:16:56;;;;;;;;;;;;;;;5.68;95.63;103444.47;5089289;28;19963;-80
2022/01/22 07:19:22;;;;;;;;;;;;;;;5.65;95.77;103438.34;5089713;28;19939;-80
2022/01/22 07:21:56;;;;;;;;;;;;;;;5.64;94.90;103431.38;5089453;28;19985;-78
2022/01/22 07:27:02;;;;;;;;;;;;;;;5.64;95.78;103447.88;5087914;28;19920;-79
2022/01/22 07:29:27;;;;;;;;;;;;;;;5.63;95.80;103459.16;5091380;28;19927;-79
2022/01/22 07:31:53;;;;;;;;;;;;;;;5.63;95.81;103453.94;5089060;28;20404;-79
2022/01/22 07:34:19;;;;;;;;;;;;;;;5.64;96.74;103454.84;5089389;28;19916;-79
2022/01/22 07:36:44;;;;;;;;;;;;;;;5.64;96.25;103447.00;5087764;28;20002;-79
2022/01/22 07:39:09;;;;;;;;;;;;;;;5.66;95.86;103445.31;5088618;28;19920;-81
2022/01/22 07:41:34;;;;;;;;;;;;;;;5.75;95.79;103436.72;5088976;28;19916;-79
2022/01/22 07:44:00;;;;;;;;;;;;;;;5.69;96.03;103429.69;5087167;28;19924;-74
2022/01/22 07:46:25;;;;;;;;;;;;;;;5.62;97.01;103430.47;5087391;28;19995;-75
2022/01/22 07:48:51;;;;;;;;;;;;;;;5.64;96.25;103447.00;5086099;28;19923;-74
2022/01/22 07:51:16;;;;;;;;;;;;;;;5.68;97.31;103441.88;5071414;28;19970;-74
2022/01/22 07:53:44;;;;;;;;;;;;;;;5.67;96.62;103437.50;5075311;28;20316;-74
2022/01/22 07:56:10;;;;;;;;;;;;;;;5.67;96.57;103441.84;5086404;28;20409;-74
2022/01/22 07:58:35;;;;;;;;;;;;;;;5.67;96.44;103436.63;5089402;28;20003;-75
2022/01/22 08:01:00;;;;;;;;;;;;;;;5.63;96.47;103440.03;5087683;28;19977;-74
2022/01/22 08:03:27;;;;;;;;;;;;;;;5.65;96.29;103446.16;5087034;28;19923;-78
2022/01/22 08:05:53;;;;;;;;;;;;;;;5.66;95.89;103432.28;5087627;28;20365;-77
2022/01/22 08:08:18;;;;;;;;;;;;;;;5.70;95.64;103439.28;5087856;28;19922;-75
2022/01/22 08:10:43;;;;;;;;;;;;;;;5.68;95.49;103438.38;5087662;28;19939;-76
2022/01/22 08:13:08;;;;;;;;;;;;;;;5.66;95.40;103433.13;5087418;28;19920;-75
2022/01/22 08:15:34;;;;;;;;;;;;;;;5.65;95.61;103431.38;5085703;28;20003;-75
2022/01/22 08:18:00;;;;;;;;;;;;;;;5.71;95.34;103435.81;5087911;28;19924;-77
2022/01/22 08:20:26;;;;;;;;;;;;;;;5.66;96.03;103440.09;5087152;28;19916;-75
2022/01/22 08:22:53;;;;;;;;;;;;;;;5.67;95.97;103447.06;5087183;28;19916;-75
2022/01/22 08:25:18;;;;;;;;;;;;;;;5.63;95.85;103443.50;5085815;28;19920;-75
2022/01/22 08:30:24;;;;;;;;;;;;;;;5.71;95.63;103447.16;5087757;28;19924;-78
2022/01/22 08:38:11;;;;;;;;;;;;;;;5.76;95.58;103468.09;5087983;28;19963;-81
2022/01/22 08:40:36;;;;;;;;;;;;;;;5.76;95.31;103464.56;5074422;28;19956;-81
2022/01/22 08:43:01;;;;;;;;;;;;;;;5.78;95.39;103466.38;5078989;28;19954;-77
2022/01/22 08:45:27;;;;;;;;;;;;;;;5.79;95.74;103457.69;5094088;28;19916;-81
2022/01/22 08:47:52;;;;;;;;;;;;;;;5.83;95.07;103456.88;5092882;28;19920;-77
2022/01/22 08:50:17;;;;;;;;;;;;;;;5.89;95.72;103448.28;5090119;28;19930;-77
2022/01/22 08:52:43;;;;;;;;;;;;;;;5.88;95.15;103446.50;5094042;28;19961;-77
2022/01/22 08:55:08;;;;;;;;;;;;;;;5.96;95.46;103441.41;5091063;28;19916;-82
2022/01/22 08:57:33;;;;;;;;;;;;;;;5.98;95.01;103448.41;5093096;28;19923;-82
2022/01/22 08:59:59;;;;;;;;;;;;;;;6.06;95.15;103439.84;5093118;28;19924;-78
2022/01/22 09:02:24;;;;;;;;;;;;;;;6.09;94.57;103437.28;5087177;28;19921;-76
2022/01/22 09:04:52;;;;;;;;;;;;;;;6.15;94.08;103442.59;5073207;28;20003;-86
2022/01/22 09:07:17;;;;;;;;;;;;;;;6.22;93.71;103444.41;5069596;28;19971;-77
2022/01/22 09:09:42;;;;;;;;;;;;;;;6.21;93.25;103447.03;5071738;28;20362;-77
2022/01/22 09:12:09;;;;;;;;;;;;;;;6.31;93.59;103452.38;5111010;28;19931;-77
2022/01/22 09:14:34;;;;;;;;;;;;;;;6.31;93.29;103449.75;5106171;28;19923;-78
2022/01/22 09:17:00;;;;;;;;;;;;;;;6.41;93.56;103449.88;5072300;28;19925;-84
2022/01/22 09:19:31;;;;;;;;;;;;;;;6.38;92.89;103449.88;5071210;28;19929;-83
2022/01/22 09:21:57;;;;;;;;;;;;;;;6.48;92.76;103454.34;5099634;28;19974;-84
2022/01/22 09:24:22;;;;;;;;;;;;;;;6.55;92.10;103447.47;5099400;28;19951;-79
2022/01/22 09:26:47;;;;;;;;;;;;;;;6.58;92.15;103450.09;5094883;28;20381;-76
2022/01/22 09:29:15;;;;;;;;;;;;;;;6.63;91.79;103459.75;5094878;28;19927;-77
2022/01/22 09:31:40;;;;;;;;;;;;;;;6.68;92.01;103462.41;5107053;28;19916;-81
2022/01/22 09:34:06;;;;;;;;;;;;;;;6.74;90.84;103456.38;5111765;27;19916;-80
2022/01/22 09:36:32;;;;;;;;;;;;;;;6.68;89.25;103456.31;5092348;28;20381;-79
2022/01/22 09:38:58;;;;;;;;;;;;;;;6.67;90.21;103454.56;5101494;28;20016;-83
2022/01/22 09:41:24;;;;;;;;;;;;;;;6.68;89.82;103449.34;5098725;28;19916;-79
2022/01/22 09:43:49;;;;;;;;;;;;;;;6.80;89.61;103448.63;5092577;27;19995;-76
2022/01/22 09:46:15;;;;;;;;;;;;;;;6.87;89.91;103465.25;5098218;27;19920;-78
2022/01/22 09:48:55;;;;;;;;;;;;;;;6.94;89.55;103470.56;5098827;28;20007;-77
2022/01/22 09:51:21;;;;;;;;;;;;;;;7.01;88.77;103468.00;5099155;28;20520;-78
2022/01/22 09:53:46;;;;;;;;;;;;;;;7.06;88.69;103468.91;5094266;28;19920;-83
2022/01/22 09:56:12;;;;;;;;;;;;;;;7.11;88.48;103475.94;5088951;28;19926;-77
2022/01/22 09:58:38;;;;;;;;;;;;;;;7.09;88.89;103475.09;5095067;28;19927;-76
2022/01/22 10:01:19;;;;;;;;;;;;;;;7.10;88.16;103475.94;5091329;28;20408;-82
2022/01/22 10:03:44;;;;;;;;;;;;;;;7.10;88.27;103475.94;5099335;28;19965;-83
2022/01/22 10:06:25;;;;;;;;;;;;;;;7.13;88.54;103468.16;5092280;28;20461;-79
2022/01/22 10:08:55;;;;;;;;;;;;;;;7.16;88.27;103473.41;5094989;28;20003;-78
2022/01/22 10:11:35;;;;;;;;;;;;;;;7.16;88.39;103469.91;5087797;28;19928;-77
2022/01/22 10:14:01;;;;;;;;;;;;;;;7.13;87.68;103473.38;5091890;28;20011;-76
2022/01/22 10:16:28;;;;;;;;;;;;;;;7.09;88.13;103482.03;5101712;28;20007;-78
2022/01/22 10:19:09;;;;;;;;;;;;;;;7.08;88.63;103475.94;5106643;28;19920;-78
2022/01/22 10:21:34;;;;;;;;;;;;;;;7.10;89.11;103486.41;5089994;28;19916;-77
2022/01/22 10:24:15;;;;;;;;;;;;;;;7.12;89.43;103484.69;5095456;28;20399;-79
2022/01/22 10:26:40;;;;;;;;;;;;;;;7.17;89.03;103488.22;5108350;27;19978;-76
2022/01/22 10:29:09;;;;;;;;;;;;;;;7.14;88.99;103488.19;5091816;28;19963;-77
2022/01/22 10:31:49;;;;;;;;;;;;;;;7.14;89.26;103482.97;5098738;28;19916;-79
2022/01/22 10:34:15;;;;;;;;;;;;;;;7.16;89.83;103475.13;5088867;28;19917;-78
2022/01/22 10:36:40;;;;;;;;;;;;;;;7.16;88.98;103476.03;5088933;28;19977;-84
2022/01/22 10:39:20;;;;;;;;;;;;;;;7.10;90.29;103484.69;5091004;28;20003;-84
2022/01/22 10:41:46;;;;;;;;;;;;;;;7.08;90.04;103480.28;5070220;28;19917;-83
2022/01/22 10:44:15;;;;;;;;;;;;;;;7.15;90.06;103484.72;5078277;28;20288;-83
2022/01/22 10:46:44;;;;;;;;;;;;;;;7.18;90.00;103489.97;5098208;28;19920;-81
2022/01/22 10:49:12;;;;;;;;;;;;;;;7.15;89.98;103489.97;5110222;27;20384;-83
2022/01/22 10:51:53;;;;;;;;;;;;;;;7.02;89.98;103495.91;5104736;27;19920;-83
2022/01/22 10:54:33;;;;;;;;;;;;;;;7.00;89.82;103484.56;5094496;27;19924;-84
2022/01/22 10:57:14;;;;;;;;;;;;;;;6.94;90.54;103491.47;5083617;28;19921;-86
2022/01/22 10:59:55;;;;;;;;;;;;;;;6.94;90.19;103488.88;5074612;28;19939;-79
2022/01/22 11:02:36;;;;;;;;;;;;;;;6.96;90.16;103492.34;5077973;28;19924;-81
2022/01/22 11:05:02;;;;;;;;;;;;;;;7.10;89.77;103500.38;5074039;28;20262;-88
2022/01/22 11:07:27;;;;;;;;;;;;;;;7.10;90.16;103503.00;5087602;28;19924;-83
2022/01/22 11:09:53;;;;;;;;;;;;;;;7.23;89.35;103509.22;5067396;28;19916;-80
2022/01/22 11:12:18;;;;;;;;;;;;;;;7.23;89.12;103501.38;5068422;28;19934;-81
2022/01/22 11:14:44;;;;;;;;;;;;;;;7.31;88.29;103503.16;5068969;28;19926;-86
2022/01/22 11:17:10;;;;;;;;;;;;;;;7.31;88.66;103496.22;5066455;28;20541;-81
2022/01/22 11:19:37;;;;;;;;;;;;;;;7.30;88.72;103488.34;5069678;28;19917;-81
2022/01/22 11:22:02;;;;;;;;;;;;;;;7.24;88.46;103495.28;5067620;28;19955;-79
2022/01/22 11:24:28;;;;;;;;;;;;;;;7.28;88.55;103494.44;5082526;28;19951;-82
2022/01/22 11:27:08;;;;;;;;;;;;;;;7.41;88.73;103489.31;5088986;28;19916;-82
2022/01/22 11:29:49;;;;;;;;;;;;;;;7.41;88.37;103486.72;5089721;28;19916;-83
2022/01/22 11:32:16;;;;;;;;;;;;;;;7.36;88.74;103488.41;5088906;28;19955;-85
2022/01/22 11:34:43;;;;;;;;;;;;;;;7.35;88.60;103487.53;5091694;28;19939;-86
2022/01/22 11:37:24;;;;;;;;;;;;;;;7.26;88.96;103488.34;5088724;28;19931;-84
2022/01/22 11:40:08;;;;;;;;;;;;;;;7.27;88.87;103489.19;5084884;28;19920;-84
2022/01/22 11:42:55;;;;;;;;;;;;;;;7.37;88.19;103477.97;5068141;28;19916;-81
2022/01/22 11:45:38;;;;;;;;;;;;;;;7.40;88.24;103480.63;5071227;28;20007;-85
2022/01/22 11:48:18;;;;;;;;;;;;;;;7.36;88.74;103478.81;5070321;28;19920;-89
2022/01/22 11:50:46;;;;;;;;;;;;;;;7.36;89.28;103477.97;5068647;28;19923;-80
2022/01/22 11:53:27;;;;;;;;;;;;;;;7.42;88.53;103478.00;5071960;28;19924;-84
2022/01/22 11:56:07;;;;;;;;;;;;;;;7.46;88.76;103478.91;5089177;28;19920;-82
2022/01/22 11:58:33;;;;;;;;;;;;;;;7.47;89.06;103485.88;5088793;28;19916;-83
2022/01/22 12:00:59;;;;;;;;;;;;;;;7.33;89.09;103488.38;5090610;28;20064;-87
2022/01/22 12:03:24;;;;;;;;;;;;;;;7.31;88.92;103487.47;5090271;28;19963;-86
2022/01/22 12:05:49;;;;;;;;;;;;;;;7.24;89.34;103495.28;5087497;28;19916;-79
2022/01/22 12:08:15;;;;;;;;;;;;;;;7.23;89.54;103498.75;5088157;28;19923;-80
2022/01/22 12:10:42;;;;;;;;;;;;;;;7.20;89.57;103498.72;5088478;28;20420;-79
2022/01/22 12:16:04;;;;;;;;;;;;;;;7.16;89.70;103496.94;5088951;28;19924;-80
2022/01/22 12:18:32;;;;;;;;;;;;;;;7.21;89.94;103500.47;5080401;28;20495;-76
2022/01/22 12:23:39;;;;;;;;;;;;;;;7.24;89.96;103510.06;5090074;28;19920;-78
2022/01/22 12:26:04;;;;;;;;;;;;;;;7.26;89.35;103492.66;5091352;28;20471;-80
2022/01/22 12:28:45;;;;;;;;;;;;;;;7.31;89.40;103490.09;5093899;28;19920;-78
2022/01/22 12:31:27;;;;;;;;;;;;;;;7.32;90.03;103473.56;5089916;28;19919;-75
2022/01/22 12:33:53;;;;;;;;;;;;;;;7.42;88.78;103472.78;5090670;28;19927;-76
2022/01/22 12:36:35;;;;;;;;;;;;;;;7.38;88.34;103476.25;5088046;28;19936;-78
2022/01/22 12:39:05;;;;;;;;;;;;;;;7.37;89.15;103480.56;5087273;28;19924;-77
2022/01/22 12:44:29;;;;;;;;;;;;;;;7.38;88.86;103492.78;5071395;28;19923;-76
2022/01/22 12:46:56;;;;;;;;;;;;;;;7.40;88.73;103495.41;5087773;28;19920;-77
2022/01/22 12:49:22;;;;;;;;;;;;;;;7.41;88.54;103494.56;5090515;28;19920;-77
2022/01/22 12:54:46;;;;;;;;;;;;;;;7.19;88.17;103496.97;5089324;28;19927;-76
2022/01/22 12:57:13;;;;;;;;;;;;;;;7.20;87.73;103487.41;5090260;28;19927;-80
2022/01/22 12:59:56;;;;;;;;;;;;;;;7.12;88.30;103495.16;5089675;28;20107;-77
2022/01/22 13:02:34;;;;;;;;;;;;;;;7.04;89.16;103492.44;5089509;28;19921;-76
2022/01/22 13:05:00;;;;;;;;;;;;;;;6.96;90.23;103505.41;5091672;28;19924;-77
2022/01/22 13:07:26;;;;;;;;;;;;;;;6.88;90.57;103516.66;5089883;28;20285;-75
2022/01/22 13:09:56;;;;;;;;;;;;;;;6.89;90.59;103534.09;5091326;28;20290;-76
2022/01/22 13:12:23;;;;;;;;;;;;;;;6.75;91.05;103520.84;5087639;28;20313;-76
2022/01/22 13:14:53;;;;;;;;;;;;;;;6.58;92.58;103526.75;5090556;28;20015;-78
2022/01/22 13:17:18;;;;;;;;;;;;;;;6.55;93.01;103529.31;5090323;28;19932;-77
2022/01/22 13:19:44;;;;;;;;;;;;;;;6.53;93.98;103523.16;5090349;28;19973;-77
2022/01/22 13:22:09;;;;;;;;;;;;;;;6.58;93.07;103521.50;5090903;28;20385;-76
2022/01/22 13:24:36;;;;;;;;;;;;;;;6.63;92.67;103532.03;5090808;28;19965;-78
2022/01/22 13:27:08;;;;;;;;;;;;;;;6.61;93.10;103526.78;5091052;28;19916;-77
2022/01/22 13:29:35;;;;;;;;;;;;;;;6.63;92.29;103524.19;5089643;28;19916;-76
2022/01/22 13:49:09;;;;;;;;;;;;;;;6.58;92.25;103511.06;5090854;28;19967;-76
2022/01/22 13:51:38;;;;;;;;;;;;;;;6.60;91.93;103514.59;5099602;28;19920;-75
2022/01/22 13:54:03;;;;;;;;;;;;;;;6.63;91.68;103511.13;5096070;28;20606;-78
2022/01/22 13:59:25;;;;;;;;;;;;;;;6.60;91.52;103504.13;5073331;28;19916;-77
2022/01/22 14:04:59;;;;;;;;;;;;;;;6.55;91.27;103500.56;5094384;27;20672;-76
2022/01/22 14:10:21;;;;;;;;;;;;;;;6.59;91.59;103498.88;5095829;27;19935;-76
2022/01/22 14:15:45;;;;;;;;;;;;;;;6.64;91.56;103490.22;5075059;28;19920;-76
2022/01/22 14:20:38;;;;;;;;;;;;;;;6.70;91.01;103480.72;5088171;28;20366;-75
2022/01/22 14:23:19;;;;;;;;;;;;;;;6.70;90.42;103470.28;5089068;28;19920;-75
2022/01/22 14:26:00;;;;;;;;;;;;;;;6.73;90.17;103465.06;5087711;28;19919;-75
2022/01/22 14:28:40;;;;;;;;;;;;;;;6.78;89.48;103455.56;5085593;28;20002;-77
2022/01/22 14:31:26;;;;;;;;;;;;;;;6.77;89.28;103459.03;5083748;28;19923;-74
2022/01/22 14:33:51;;;;;;;;;;;;;;;6.82;89.05;103454.75;5092030;28;19930;-77
2022/01/22 14:36:18;;;;;;;;;;;;;;;6.87;89.07;103450.44;5083552;28;19929;-76
2022/01/22 14:49:33;;;;;;;;;;;;;;;6.76;89.69;103459.88;5086178;28;19930;-76
2022/01/22 14:51:59;;;;;;;;;;;;;;;6.76;89.72;103454.66;5087424;28;20328;-75
2022/01/22 14:54:25;;;;;;;;;;;;;;;6.70;89.87;103460.69;5087986;28;19923;-75
2022/01/22 14:56:50;;;;;;;;;;;;;;;6.61;89.81;103473.66;5086649;28;20385;-76
2022/01/22 14:59:16;;;;;;;;;;;;;;;6.64;90.68;103476.31;5088344;28;19916;-76
2022/01/22 15:01:41;;;;;;;;;;;;;;;6.63;90.54;103478.03;5086440;28;20393;-77
2022/01/22 15:04:06;;;;;;;;;;;;;;;6.64;90.01;103474.56;5085303;28;19927;-77
2022/01/22 15:06:32;;;;;;;;;;;;;;;6.65;90.35;103475.47;5088755;28;19924;-79
2022/01/22 15:08:57;;;;;;;;;;;;;;;6.59;89.76;103472.75;5084917;28;20304;-77
2022/01/22 15:11:22;;;;;;;;;;;;;;;6.50;90.23;103473.53;5091268;28;19919;-79
2022/01/22 15:13:48;;;;;;;;;;;;;;;6.48;90.57;103478.72;5088250;28;19995;-77
2022/01/22 15:16:17;;;;;;;;;;;;;;;6.61;89.44;103476.25;5083848;28;19924;-76
2022/01/22 15:21:08;;;;;;;;;;;;;;;6.56;90.55;103493.63;5068408;28;20483;-79
2022/01/22 15:23:33;;;;;;;;;;;;;;;6.54;90.25;103490.97;5080554;28;19916;-79
2022/01/22 15:25:59;;;;;;;;;;;;;;;6.44;90.89;103499.53;5089434;28;20282;-83
2022/01/22 15:28:26;;;;;;;;;;;;;;;6.40;90.94;103493.41;5075799;28;19942;-78
2022/01/22 15:30:53;;;;;;;;;;;;;;;6.40;91.30;103493.41;5098324;28;19920;-77
2022/01/22 15:33:23;;;;;;;;;;;;;;;6.33;91.86;103502.88;5090426;28;19920;-82
2022/01/22 15:35:48;;;;;;;;;;;;;;;6.39;91.63;103506.47;5099283;28;20014;-82
2022/01/22 15:38:14;;;;;;;;;;;;;;;6.37;91.28;103510.78;5088886;28;20015;-82
2022/01/22 15:40:39;;;;;;;;;;;;;;;6.27;91.53;103514.97;5080342;28;19920;-84
2022/01/22 15:43:05;;;;;;;;;;;;;;;6.17;92.13;103509.63;5087448;28;19924;-81